<?xml version="1.0" encoding="utf-8"?>
<gpx xmlns:xsi="http://www.w3.org/2001/XMLSchema-instance" xmlns:xsd="http://www.w3.org/2001/XMLSchema" version="1.1" creator="Shapelink.com" xmlns="http://www.topografix.com/GPX/1/1" xmlns:gpxtpx="http://www.garmin.com/xmlschemas/TrackPointExtension/v1">
  <metadata>
    <name>Promenad 4.41 km, 2017-05-01</name>
    <desc></desc>
    <author><name>Morten Hedlund</name></author> 
    <time>2017-05-01T09:37:49Z</time>
  </metadata>
  <trk>
    <name>Promenad 4.41 km, 2017-05-01</name>
    <trkseg>
      <trkpt lat="59.0262198995" lon="12.226169754498">
        <ele>101.6</ele>
        <time>2017-05-01T09:37:49Z</time>
      </trkpt>
      <trkpt lat="59.026047651455" lon="12.226272265135">
        <ele>104</ele>
        <time>2017-05-01T09:38:01Z</time>
      </trkpt>
      <trkpt lat="59.02586618332" lon="12.226386761889">
        <ele>103</ele>
        <time>2017-05-01T09:38:11Z</time>
      </trkpt>
      <trkpt lat="59.025691253067" lon="12.226488853431">
        <ele>102.8</ele>
        <time>2017-05-01T09:38:26Z</time>
      </trkpt>
      <trkpt lat="59.025520429945" lon="12.226618940519">
        <ele>96.6</ele>
        <time>2017-05-01T09:38:38Z</time>
      </trkpt>
      <trkpt lat="59.02534315276" lon="12.226751374539">
        <ele>95</ele>
        <time>2017-05-01T09:38:50Z</time>
      </trkpt>
      <trkpt lat="59.025161852263" lon="12.226873750279">
        <ele>94.6</ele>
        <time>2017-05-01T09:39:02Z</time>
      </trkpt>
      <trkpt lat="59.024986419096" lon="12.226963604247">
        <ele>94</ele>
        <time>2017-05-01T09:39:14Z</time>
      </trkpt>
      <trkpt lat="59.024806459703" lon="12.22705220093">
        <ele>94.2</ele>
        <time>2017-05-01T09:39:27Z</time>
      </trkpt>
      <trkpt lat="59.02468433542" lon="12.227306843052">
        <ele>94.2</ele>
        <time>2017-05-01T09:39:40Z</time>
      </trkpt>
      <trkpt lat="59.024686430895" lon="12.22733215639">
        <ele>94</ele>
        <time>2017-05-01T09:39:41Z</time>
      </trkpt>
      <trkpt lat="59.02469020275" lon="12.227689812063">
        <ele>92.2</ele>
        <time>2017-05-01T09:39:55Z</time>
      </trkpt>
      <trkpt lat="59.02468349723" lon="12.228042606234">
        <ele>90.2</ele>
        <time>2017-05-01T09:40:08Z</time>
      </trkpt>
      <trkpt lat="59.024725909644" lon="12.228369751791">
        <ele>88.8</ele>
        <time>2017-05-01T09:40:21Z</time>
      </trkpt>
      <trkpt lat="59.024890697798" lon="12.228315520898">
        <ele>89.4</ele>
        <time>2017-05-01T09:40:34Z</time>
      </trkpt>
      <trkpt lat="59.02496848183" lon="12.228182248688">
        <ele>88.8</ele>
        <time>2017-05-01T09:40:41Z</time>
      </trkpt>
      <trkpt lat="59.025059090169" lon="12.228486679296">
        <ele>86.6</ele>
        <time>2017-05-01T09:40:57Z</time>
      </trkpt>
      <trkpt lat="59.025105442076" lon="12.228565050061">
        <ele>85.6</ele>
        <time>2017-05-01T09:41:02Z</time>
      </trkpt>
      <trkpt lat="59.025258914665" lon="12.228638643143">
        <ele>85.6</ele>
        <time>2017-05-01T09:42:37Z</time>
      </trkpt>
      <trkpt lat="59.025449519071" lon="12.228641828265">
        <ele>84.6</ele>
        <time>2017-05-01T09:42:49Z</time>
      </trkpt>
      <trkpt lat="59.025631657758" lon="12.228725563446">
        <ele>84.6</ele>
        <time>2017-05-01T09:43:01Z</time>
      </trkpt>
      <trkpt lat="59.025795607722" lon="12.228893788179">
        <ele>87.6</ele>
        <time>2017-05-01T09:43:13Z</time>
      </trkpt>
      <trkpt lat="59.025976321486" lon="12.228915162024">
        <ele>88.6</ele>
        <time>2017-05-01T09:43:26Z</time>
      </trkpt>
      <trkpt lat="59.026151335558" lon="12.228792618646">
        <ele>89.6</ele>
        <time>2017-05-01T09:43:38Z</time>
      </trkpt>
      <trkpt lat="59.026302964129" lon="12.228592458874">
        <ele>89.8</ele>
        <time>2017-05-01T09:43:52Z</time>
      </trkpt>
      <trkpt lat="59.026460124754" lon="12.228429514738">
        <ele>88.6</ele>
        <time>2017-05-01T09:44:05Z</time>
      </trkpt>
      <trkpt lat="59.026647544038" lon="12.228404788133">
        <ele>87.8</ele>
        <time>2017-05-01T09:44:20Z</time>
      </trkpt>
      <trkpt lat="59.026827168155" lon="12.228454744257">
        <ele>86.6</ele>
        <time>2017-05-01T09:44:32Z</time>
      </trkpt>
      <trkpt lat="59.027018359294" lon="12.228506963494">
        <ele>89</ele>
        <time>2017-05-01T09:44:44Z</time>
      </trkpt>
      <trkpt lat="59.027206113854" lon="12.228588938476">
        <ele>90</ele>
        <time>2017-05-01T09:44:57Z</time>
      </trkpt>
      <trkpt lat="59.027397388812" lon="12.228627914311">
        <ele>91</ele>
        <time>2017-05-01T09:45:11Z</time>
      </trkpt>
      <trkpt lat="59.027558237473" lon="12.228770658068">
        <ele>89.6</ele>
        <time>2017-05-01T09:45:24Z</time>
      </trkpt>
      <trkpt lat="59.027544910252" lon="12.229130744492">
        <ele>88.2</ele>
        <time>2017-05-01T09:45:36Z</time>
      </trkpt>
      <trkpt lat="59.027476681586" lon="12.229466439587">
        <ele>85.8</ele>
        <time>2017-05-01T09:45:49Z</time>
      </trkpt>
      <trkpt lat="59.027382301392" lon="12.229770367281">
        <ele>84</ele>
        <time>2017-05-01T09:46:02Z</time>
      </trkpt>
      <trkpt lat="59.027260009471" lon="12.230045712696">
        <ele>85.4</ele>
        <time>2017-05-01T09:46:16Z</time>
      </trkpt>
      <trkpt lat="59.027211897365" lon="12.230115198647">
        <ele>84.8</ele>
        <time>2017-05-01T09:46:21Z</time>
      </trkpt>
      <trkpt lat="59.027102848846" lon="12.230362716154">
        <ele>89.6</ele>
        <time>2017-05-01T09:47:20Z</time>
      </trkpt>
      <trkpt lat="59.026963290211" lon="12.230612580593">
        <ele>88.8</ele>
        <time>2017-05-01T09:47:32Z</time>
      </trkpt>
      <trkpt lat="59.026819372988" lon="12.230847776707">
        <ele>87.8</ele>
        <time>2017-05-01T09:47:45Z</time>
      </trkpt>
      <trkpt lat="59.026690207909" lon="12.231093701653">
        <ele>86.4</ele>
        <time>2017-05-01T09:47:57Z</time>
      </trkpt>
      <trkpt lat="59.026528856334" lon="12.231276091797">
        <ele>86.8</ele>
        <time>2017-05-01T09:48:10Z</time>
      </trkpt>
      <trkpt lat="59.026337832833" lon="12.231295034891">
        <ele>85.6</ele>
        <time>2017-05-01T09:48:23Z</time>
      </trkpt>
      <trkpt lat="59.026158376354" lon="12.231357480046">
        <ele>85.6</ele>
        <time>2017-05-01T09:48:36Z</time>
      </trkpt>
      <trkpt lat="59.025984619567" lon="12.231463678719">
        <ele>85.4</ele>
        <time>2017-05-01T09:48:49Z</time>
      </trkpt>
      <trkpt lat="59.025826034019" lon="12.231652774383">
        <ele>84.8</ele>
        <time>2017-05-01T09:49:03Z</time>
      </trkpt>
      <trkpt lat="59.025687565031" lon="12.231884533918">
        <ele>83</ele>
        <time>2017-05-01T09:49:16Z</time>
      </trkpt>
      <trkpt lat="59.025567620042" lon="12.232166668672">
        <ele>82.6</ele>
        <time>2017-05-01T09:49:31Z</time>
      </trkpt>
      <trkpt lat="59.025499475195" lon="12.232316620863">
        <ele>85</ele>
        <time>2017-05-01T09:51:50Z</time>
      </trkpt>
      <trkpt lat="59.025445328121" lon="12.232560534153">
        <ele>85.8</ele>
        <time>2017-05-01T09:54:10Z</time>
      </trkpt>
      <trkpt lat="59.025413476901" lon="12.232922548414">
        <ele>81.6</ele>
        <time>2017-05-01T09:54:24Z</time>
      </trkpt>
      <trkpt lat="59.0253649457" lon="12.233265619581">
        <ele>83.6</ele>
        <time>2017-05-01T09:54:37Z</time>
      </trkpt>
      <trkpt lat="59.025213317129" lon="12.233485728275">
        <ele>83.8</ele>
        <time>2017-05-01T09:54:50Z</time>
      </trkpt>
      <trkpt lat="59.025127989387" lon="12.233496876202">
        <ele>84.2</ele>
        <time>2017-05-01T09:54:56Z</time>
      </trkpt>
      <trkpt lat="59.024939480456" lon="12.233481285868">
        <ele>84.4</ele>
        <time>2017-05-01T09:55:10Z</time>
      </trkpt>
      <trkpt lat="59.024755833027" lon="12.23355990809">
        <ele>84.6</ele>
        <time>2017-05-01T09:55:24Z</time>
      </trkpt>
      <trkpt lat="59.024573610521" lon="12.23368228383">
        <ele>86</ele>
        <time>2017-05-01T09:55:36Z</time>
      </trkpt>
      <trkpt lat="59.024398931725" lon="12.233806671226">
        <ele>86</ele>
        <time>2017-05-01T09:55:50Z</time>
      </trkpt>
      <trkpt lat="59.024228611517" lon="12.233939943436">
        <ele>84.4</ele>
        <time>2017-05-01T09:56:03Z</time>
      </trkpt>
      <trkpt lat="59.024063068992" lon="12.234123758503">
        <ele>84</ele>
        <time>2017-05-01T09:56:16Z</time>
      </trkpt>
      <trkpt lat="59.023900041037" lon="12.234311680701">
        <ele>84.4</ele>
        <time>2017-05-01T09:56:29Z</time>
      </trkpt>
      <trkpt lat="59.023789902871" lon="12.234595408016">
        <ele>84.4</ele>
        <time>2017-05-01T09:56:42Z</time>
      </trkpt>
      <trkpt lat="59.023772552338" lon="12.234952225499">
        <ele>82.2</ele>
        <time>2017-05-01T09:56:55Z</time>
      </trkpt>
      <trkpt lat="59.023804990291" lon="12.235311641371">
        <ele>82.6</ele>
        <time>2017-05-01T09:57:08Z</time>
      </trkpt>
      <trkpt lat="59.023841200099" lon="12.235653790529">
        <ele>81</ele>
        <time>2017-05-01T09:57:21Z</time>
      </trkpt>
      <trkpt lat="59.023903309978" lon="12.235996777877">
        <ele>81.6</ele>
        <time>2017-05-01T09:57:34Z</time>
      </trkpt>
      <trkpt lat="59.023948236962" lon="12.236363066907">
        <ele>84</ele>
        <time>2017-05-01T09:57:47Z</time>
      </trkpt>
      <trkpt lat="59.024000623837" lon="12.236720806399">
        <ele>87.4</ele>
        <time>2017-05-01T09:58:00Z</time>
      </trkpt>
      <trkpt lat="59.02399366686" lon="12.236917948687">
        <ele>89.8</ele>
        <time>2017-05-01T09:58:08Z</time>
      </trkpt>
      <trkpt lat="59.024127106708" lon="12.23668719498">
        <ele>94.2</ele>
        <time>2017-05-01T09:58:21Z</time>
      </trkpt>
      <trkpt lat="59.024242525471" lon="12.23661762521">
        <ele>97.2</ele>
        <time>2017-05-01T09:58:31Z</time>
      </trkpt>
      <trkpt lat="59.024145882164" lon="12.236934293392">
        <ele>97.2</ele>
        <time>2017-05-01T09:58:44Z</time>
      </trkpt>
      <trkpt lat="59.024052675436" lon="12.237258253827">
        <ele>94.8</ele>
        <time>2017-05-01T09:58:57Z</time>
      </trkpt>
      <trkpt lat="59.023961228907" lon="12.237547345558">
        <ele>96.8</ele>
        <time>2017-05-01T09:59:10Z</time>
      </trkpt>
      <trkpt lat="59.023873973328" lon="12.23767374461">
        <ele>96.8</ele>
        <time>2017-05-01T09:59:17Z</time>
      </trkpt>
      <trkpt lat="59.023966593323" lon="12.237950598767">
        <ele>100.4</ele>
        <time>2017-05-01T09:59:30Z</time>
      </trkpt>
      <trkpt lat="59.024084945751" lon="12.238225357449">
        <ele>103.4</ele>
        <time>2017-05-01T09:59:44Z</time>
      </trkpt>
      <trkpt lat="59.024198520496" lon="12.238510928782">
        <ele>104</ele>
        <time>2017-05-01T09:59:56Z</time>
      </trkpt>
      <trkpt lat="59.024279824926" lon="12.238826842593">
        <ele>102.8</ele>
        <time>2017-05-01T10:00:09Z</time>
      </trkpt>
      <trkpt lat="59.024381916468" lon="12.239134458323">
        <ele>105.2</ele>
        <time>2017-05-01T10:00:23Z</time>
      </trkpt>
      <trkpt lat="59.024564977164" lon="12.239147114992">
        <ele>109.4</ele>
        <time>2017-05-01T10:00:37Z</time>
      </trkpt>
      <trkpt lat="59.024854823266" lon="12.239050471685">
        <ele>114</ele>
        <time>2017-05-01T10:00:59Z</time>
      </trkpt>
      <trkpt lat="59.025027909501" lon="12.238888868653">
        <ele>113.6</ele>
        <time>2017-05-01T10:01:14Z</time>
      </trkpt>
      <trkpt lat="59.025199989908" lon="12.23875920066">
        <ele>110.8</ele>
        <time>2017-05-01T10:01:27Z</time>
      </trkpt>
      <trkpt lat="59.025366119166" lon="12.238598687275">
        <ele>109</ele>
        <time>2017-05-01T10:01:41Z</time>
      </trkpt>
      <trkpt lat="59.025533086614" lon="12.238463654866">
        <ele>111.4</ele>
        <time>2017-05-01T10:01:53Z</time>
      </trkpt>
      <trkpt lat="59.0257086036" lon="12.238318564177">
        <ele>110.6</ele>
        <time>2017-05-01T10:02:06Z</time>
      </trkpt>
      <trkpt lat="59.025889401183" lon="12.238218316653">
        <ele>113</ele>
        <time>2017-05-01T10:02:20Z</time>
      </trkpt>
      <trkpt lat="59.026069695852" lon="12.238091833782">
        <ele>114.4</ele>
        <time>2017-05-01T10:02:34Z</time>
      </trkpt>
      <trkpt lat="59.026235741291" lon="12.23791849609">
        <ele>118.2</ele>
        <time>2017-05-01T10:02:47Z</time>
      </trkpt>
      <trkpt lat="59.026403714567" lon="12.237765861691">
        <ele>122</ele>
        <time>2017-05-01T10:03:00Z</time>
      </trkpt>
      <trkpt lat="59.026526090307" lon="12.237501748022">
        <ele>125.4</ele>
        <time>2017-05-01T10:03:15Z</time>
      </trkpt>
      <trkpt lat="59.026609154936" lon="12.2371800507">
        <ele>122.2</ele>
        <time>2017-05-01T10:03:29Z</time>
      </trkpt>
      <trkpt lat="59.026713677229" lon="12.2368950661">
        <ele>119.2</ele>
        <time>2017-05-01T10:03:44Z</time>
      </trkpt>
      <trkpt lat="59.026822809567" lon="12.236596754279">
        <ele>117.4</ele>
        <time>2017-05-01T10:03:58Z</time>
      </trkpt>
      <trkpt lat="59.026952058465" lon="12.236354936464">
        <ele>114.2</ele>
        <time>2017-05-01T10:04:11Z</time>
      </trkpt>
      <trkpt lat="59.027088012883" lon="12.236104820568">
        <ele>111.8</ele>
        <time>2017-05-01T10:04:24Z</time>
      </trkpt>
      <trkpt lat="59.027242072205" lon="12.235920083492">
        <ele>109.6</ele>
        <time>2017-05-01T10:04:38Z</time>
      </trkpt>
      <trkpt lat="59.027399149011" lon="12.235701651178">
        <ele>110.4</ele>
        <time>2017-05-01T10:04:51Z</time>
      </trkpt>
      <trkpt lat="59.027529739013" lon="12.235436280224">
        <ele>114</ele>
        <time>2017-05-01T10:05:06Z</time>
      </trkpt>
      <trkpt lat="59.02762722051" lon="12.23512061787">
        <ele>113</ele>
        <time>2017-05-01T10:05:19Z</time>
      </trkpt>
      <trkpt lat="59.027775412502" lon="12.2350510481">
        <ele>111.8</ele>
        <time>2017-05-01T10:06:14Z</time>
      </trkpt>
      <trkpt lat="59.027790499922" lon="12.235092454686">
        <ele>110.6</ele>
        <time>2017-05-01T10:08:56Z</time>
      </trkpt>
      <trkpt lat="59.027773568484" lon="12.235065213511">
        <ele>113.4</ele>
        <time>2017-05-01T10:12:06Z</time>
      </trkpt>
      <trkpt lat="59.027759822168" lon="12.235067895719">
        <ele>113.6</ele>
        <time>2017-05-01T10:14:44Z</time>
      </trkpt>
      <trkpt lat="59.027943469597" lon="12.235043672028">
        <ele>112.8</ele>
        <time>2017-05-01T10:14:59Z</time>
      </trkpt>
      <trkpt lat="59.028127871397" lon="12.234954069517">
        <ele>109.6</ele>
        <time>2017-05-01T10:15:12Z</time>
      </trkpt>
      <trkpt lat="59.028299113614" lon="12.234805877525">
        <ele>110</ele>
        <time>2017-05-01T10:15:24Z</time>
      </trkpt>
      <trkpt lat="59.028449149624" lon="12.234612255635">
        <ele>111</ele>
        <time>2017-05-01T10:15:36Z</time>
      </trkpt>
      <trkpt lat="59.02862047566" lon="12.234450401146">
        <ele>109.8</ele>
        <time>2017-05-01T10:15:49Z</time>
      </trkpt>
      <trkpt lat="59.028788197479" lon="12.23432098461">
        <ele>111.2</ele>
        <time>2017-05-01T10:16:02Z</time>
      </trkpt>
      <trkpt lat="59.028965474664" lon="12.234238087619">
        <ele>111.8</ele>
        <time>2017-05-01T10:16:14Z</time>
      </trkpt>
      <trkpt lat="59.029146691342" lon="12.23419944706">
        <ele>110</ele>
        <time>2017-05-01T10:16:26Z</time>
      </trkpt>
      <trkpt lat="59.029323968527" lon="12.234117639716">
        <ele>109.2</ele>
        <time>2017-05-01T10:16:38Z</time>
      </trkpt>
      <trkpt lat="59.029512728915" lon="12.234094757129">
        <ele>107</ele>
        <time>2017-05-01T10:16:51Z</time>
      </trkpt>
      <trkpt lat="59.029695454335" lon="12.23413071548">
        <ele>105.6</ele>
        <time>2017-05-01T10:17:04Z</time>
      </trkpt>
      <trkpt lat="59.029878431212" lon="12.23412987729">
        <ele>104.8</ele>
        <time>2017-05-01T10:17:17Z</time>
      </trkpt>
      <trkpt lat="59.030058977338" lon="12.234088722161">
        <ele>101</ele>
        <time>2017-05-01T10:17:30Z</time>
      </trkpt>
      <trkpt lat="59.030225274234" lon="12.233962909842">
        <ele>103.6</ele>
        <time>2017-05-01T10:17:42Z</time>
      </trkpt>
      <trkpt lat="59.030351421829" lon="12.233670968265">
        <ele>103.4</ele>
        <time>2017-05-01T10:17:54Z</time>
      </trkpt>
      <trkpt lat="59.030433983544" lon="12.233412051374">
        <ele>102.4</ele>
        <time>2017-05-01T10:18:05Z</time>
      </trkpt>
      <trkpt lat="59.030449322421" lon="12.233052886959">
        <ele>100.2</ele>
        <time>2017-05-01T10:18:18Z</time>
      </trkpt>
      <trkpt lat="59.030357875892" lon="12.232764717237">
        <ele>99.8</ele>
        <time>2017-05-01T10:18:31Z</time>
      </trkpt>
      <trkpt lat="59.030324851206" lon="12.232420053509">
        <ele>100.2</ele>
        <time>2017-05-01T10:18:43Z</time>
      </trkpt>
      <trkpt lat="59.030233739953" lon="12.232097601816">
        <ele>101</ele>
        <time>2017-05-01T10:18:56Z</time>
      </trkpt>
      <trkpt lat="59.030076244052" lon="12.231903560831">
        <ele>101</ele>
        <time>2017-05-01T10:19:09Z</time>
      </trkpt>
      <trkpt lat="59.029903325455" lon="12.231737766849">
        <ele>98.6</ele>
        <time>2017-05-01T10:19:24Z</time>
      </trkpt>
      <trkpt lat="59.029726467365" lon="12.231638944248">
        <ele>97.6</ele>
        <time>2017-05-01T10:19:37Z</time>
      </trkpt>
      <trkpt lat="59.029546843248" lon="12.231691163485">
        <ele>97.4</ele>
        <time>2017-05-01T10:19:50Z</time>
      </trkpt>
      <trkpt lat="59.029501664807" lon="12.23173349208">
        <ele>98.2</ele>
        <time>2017-05-01T10:19:54Z</time>
      </trkpt>
      <trkpt lat="59.029476100012" lon="12.231838852563">
        <ele>94</ele>
        <time>2017-05-01T10:20:30Z</time>
      </trkpt>
      <trkpt lat="59.029444584068" lon="12.23190364465">
        <ele>96.4</ele>
        <time>2017-05-01T10:20:40Z</time>
      </trkpt>
      <trkpt lat="59.029486158292" lon="12.231826447351">
        <ele>108.2</ele>
        <time>2017-05-01T10:21:09Z</time>
      </trkpt>
      <trkpt lat="59.02945615109" lon="12.231871877249">
        <ele>104.2</ele>
        <time>2017-05-01T10:21:49Z</time>
      </trkpt>
      <trkpt lat="59.029446511905" lon="12.231868608308">
        <ele>101.4</ele>
        <time>2017-05-01T10:22:41Z</time>
      </trkpt>
      <trkpt lat="59.029573665328" lon="12.231867518661">
        <ele>113.6</ele>
        <time>2017-05-01T10:23:32Z</time>
      </trkpt>
      <trkpt lat="59.029522703376" lon="12.23183994221">
        <ele>110.6</ele>
        <time>2017-05-01T10:23:34Z</time>
      </trkpt>
      <trkpt lat="59.029498982599" lon="12.231825357704">
        <ele>108</ele>
        <time>2017-05-01T10:23:38Z</time>
      </trkpt>
      <trkpt lat="59.029453720339" lon="12.231873805086">
        <ele>102.6</ele>
        <time>2017-05-01T10:23:43Z</time>
      </trkpt>
      <trkpt lat="59.029404937681" lon="12.231940105915">
        <ele>96.4</ele>
        <time>2017-05-01T10:23:47Z</time>
      </trkpt>
      <trkpt lat="59.029395214677" lon="12.231924767038">
        <ele>96.4</ele>
        <time>2017-05-01T10:23:49Z</time>
      </trkpt>
      <trkpt lat="59.029307288546" lon="12.231817897813">
        <ele>99.8</ele>
        <time>2017-05-01T10:24:33Z</time>
      </trkpt>
      <trkpt lat="59.029376355402" lon="12.231497373957">
        <ele>99</ele>
        <time>2017-05-01T10:24:45Z</time>
      </trkpt>
      <trkpt lat="59.029370488072" lon="12.231142903406">
        <ele>100.6</ele>
        <time>2017-05-01T10:24:57Z</time>
      </trkpt>
      <trkpt lat="59.029328578572" lon="12.230796982393">
        <ele>102.6</ele>
        <time>2017-05-01T10:25:10Z</time>
      </trkpt>
      <trkpt lat="59.029296392076" lon="12.230440835462">
        <ele>103</ele>
        <time>2017-05-01T10:25:23Z</time>
      </trkpt>
      <trkpt lat="59.029280550285" lon="12.230076055174">
        <ele>102.8</ele>
        <time>2017-05-01T10:25:36Z</time>
      </trkpt>
      <trkpt lat="59.029249034341" lon="12.229710017601">
        <ele>106</ele>
        <time>2017-05-01T10:25:49Z</time>
      </trkpt>
      <trkpt lat="59.029216680207" lon="12.229353703032">
        <ele>106.8</ele>
        <time>2017-05-01T10:26:01Z</time>
      </trkpt>
      <trkpt lat="59.02918290115" lon="12.229002249965">
        <ele>107.2</ele>
        <time>2017-05-01T10:26:13Z</time>
      </trkpt>
      <trkpt lat="59.029152642491" lon="12.228637721134">
        <ele>109.4</ele>
        <time>2017-05-01T10:26:27Z</time>
      </trkpt>
      <trkpt lat="59.029161778762" lon="12.228269085172">
        <ele>108.2</ele>
        <time>2017-05-01T10:26:40Z</time>
      </trkpt>
      <trkpt lat="59.029206286651" lon="12.227909334024">
        <ele>105.6</ele>
        <time>2017-05-01T10:26:54Z</time>
      </trkpt>
      <trkpt lat="59.029269821453" lon="12.227580009173">
        <ele>103.8</ele>
        <time>2017-05-01T10:27:07Z</time>
      </trkpt>
      <trkpt lat="59.029301505035" lon="12.227413879915">
        <ele>102.6</ele>
        <time>2017-05-01T10:27:14Z</time>
      </trkpt>
      <trkpt lat="59.029147361894" lon="12.22722654445">
        <ele>101</ele>
        <time>2017-05-01T10:27:28Z</time>
      </trkpt>
      <trkpt lat="59.029024064145" lon="12.227243140612">
        <ele>101.6</ele>
        <time>2017-05-01T10:27:40Z</time>
      </trkpt>
      <trkpt lat="59.028931863245" lon="12.227037700243">
        <ele>103.6</ele>
        <time>2017-05-01T10:28:01Z</time>
      </trkpt>
      <trkpt lat="59.028942089163" lon="12.226688845565">
        <ele>103.4</ele>
        <time>2017-05-01T10:28:13Z</time>
      </trkpt>
      <trkpt lat="59.028999756635" lon="12.226342589276">
        <ele>103.2</ele>
        <time>2017-05-01T10:28:26Z</time>
      </trkpt>
      <trkpt lat="59.029040576488" lon="12.225994153693">
        <ele>106.8</ele>
        <time>2017-05-01T10:28:52Z</time>
      </trkpt>
      <trkpt lat="59.029099333607" lon="12.225655189657">
        <ele>107</ele>
        <time>2017-05-01T10:29:18Z</time>
      </trkpt>
      <trkpt lat="59.029159180373" lon="12.225316477078">
        <ele>108.6</ele>
        <time>2017-05-01T10:29:30Z</time>
      </trkpt>
      <trkpt lat="59.029284908873" lon="12.22506904339">
        <ele>107.2</ele>
        <time>2017-05-01T10:29:43Z</time>
      </trkpt>
      <trkpt lat="59.029415163599" lon="12.224799062391">
        <ele>104.6</ele>
        <time>2017-05-01T10:29:57Z</time>
      </trkpt>
      <trkpt lat="59.029569558197" lon="12.224601836284">
        <ele>104.6</ele>
        <time>2017-05-01T10:30:10Z</time>
      </trkpt>
      <trkpt lat="59.029778518964" lon="12.224337890253">
        <ele>105.4</ele>
        <time>2017-05-01T10:30:27Z</time>
      </trkpt>
      <trkpt lat="59.029926124223" lon="12.224111914229">
        <ele>104</ele>
        <time>2017-05-01T10:30:41Z</time>
      </trkpt>
      <trkpt lat="59.029998627658" lon="12.22379080364">
        <ele>106.8</ele>
        <time>2017-05-01T10:30:54Z</time>
      </trkpt>
      <trkpt lat="59.030110274566" lon="12.223486792127">
        <ele>106</ele>
        <time>2017-05-01T10:31:07Z</time>
      </trkpt>
      <trkpt lat="59.030193423014" lon="12.223173644343">
        <ele>106.6</ele>
        <time>2017-05-01T10:31:21Z</time>
      </trkpt>
      <trkpt lat="59.030289479588" lon="12.222886983363">
        <ele>109</ele>
        <time>2017-05-01T10:31:36Z</time>
      </trkpt>
      <trkpt lat="59.03036307267" lon="12.222565537498">
        <ele>112.6</ele>
        <time>2017-05-01T10:31:50Z</time>
      </trkpt>
      <trkpt lat="59.030367431258" lon="12.222212994784">
        <ele>116.8</ele>
        <time>2017-05-01T10:32:02Z</time>
      </trkpt>
      <trkpt lat="59.030480586908" lon="12.221872354368">
        <ele>107.6</ele>
        <time>2017-05-01T10:32:15Z</time>
      </trkpt>
      <trkpt lat="59.030582594631" lon="12.221562475525">
        <ele>102</ele>
        <time>2017-05-01T10:32:29Z</time>
      </trkpt>
      <trkpt lat="59.030666916545" lon="12.221235413787">
        <ele>103.2</ele>
        <time>2017-05-01T10:32:42Z</time>
      </trkpt>
      <trkpt lat="59.03068326125" lon="12.221125107983">
        <ele>105.8</ele>
        <time>2017-05-01T10:32:46Z</time>
      </trkpt>
      <trkpt lat="59.030497434527" lon="12.221031314522">
        <ele>101.2</ele>
        <time>2017-05-01T10:32:57Z</time>
      </trkpt>
      <trkpt lat="59.030309344691" lon="12.220955793603">
        <ele>97.8</ele>
        <time>2017-05-01T10:33:10Z</time>
      </trkpt>
      <trkpt lat="59.030124272339" lon="12.220878512485">
        <ele>96</ele>
        <time>2017-05-01T10:33:23Z</time>
      </trkpt>
      <trkpt lat="59.029938780892" lon="12.220837608813">
        <ele>95.4</ele>
        <time>2017-05-01T10:33:36Z</time>
      </trkpt>
      <trkpt lat="59.029753121807" lon="12.220742055153">
        <ele>95.8</ele>
        <time>2017-05-01T10:33:49Z</time>
      </trkpt>
      <trkpt lat="59.029570396387" lon="12.220607944753">
        <ele>96.2</ele>
        <time>2017-05-01T10:34:03Z</time>
      </trkpt>
      <trkpt lat="59.029382641827" lon="12.220507948686">
        <ele>99.8</ele>
        <time>2017-05-01T10:34:16Z</time>
      </trkpt>
      <trkpt lat="59.029205029366" lon="12.22042714717">
        <ele>103.6</ele>
        <time>2017-05-01T10:34:29Z</time>
      </trkpt>
      <trkpt lat="59.029031943131" lon="12.220320110307">
        <ele>105.8</ele>
        <time>2017-05-01T10:34:42Z</time>
      </trkpt>
      <trkpt lat="59.02885433067" lon="12.220235285479">
        <ele>106</ele>
        <time>2017-05-01T10:34:56Z</time>
      </trkpt>
      <trkpt lat="59.028668420128" lon="12.22017569017">
        <ele>103</ele>
        <time>2017-05-01T10:35:07Z</time>
      </trkpt>
      <trkpt lat="59.028488628373" lon="12.22011031135">
        <ele>100.8</ele>
        <time>2017-05-01T10:35:21Z</time>
      </trkpt>
      <trkpt lat="59.028306908781" lon="12.220054571715">
        <ele>101</ele>
        <time>2017-05-01T10:35:34Z</time>
      </trkpt>
      <trkpt lat="59.02811923804" lon="12.219982655013">
        <ele>103.4</ele>
        <time>2017-05-01T10:35:48Z</time>
      </trkpt>
      <trkpt lat="59.027931986394" lon="12.219873774132">
        <ele>104.6</ele>
        <time>2017-05-01T10:36:02Z</time>
      </trkpt>
      <trkpt lat="59.027739118875" lon="12.21986807444">
        <ele>104</ele>
        <time>2017-05-01T10:36:14Z</time>
      </trkpt>
      <trkpt lat="59.027546838089" lon="12.219817447764">
        <ele>104.6</ele>
        <time>2017-05-01T10:36:28Z</time>
      </trkpt>
      <trkpt lat="59.027365369954" lon="12.219769251839">
        <ele>105.4</ele>
        <time>2017-05-01T10:36:41Z</time>
      </trkpt>
      <trkpt lat="59.027186919303" lon="12.219733544945">
        <ele>108</ele>
        <time>2017-05-01T10:36:54Z</time>
      </trkpt>
      <trkpt lat="59.027006037901" lon="12.219689204694">
        <ele>106.8</ele>
        <time>2017-05-01T10:37:05Z</time>
      </trkpt>
      <trkpt lat="59.026842507032" lon="12.21961242649">
        <ele>108</ele>
        <time>2017-05-01T10:37:18Z</time>
      </trkpt>
      <trkpt lat="59.026663721105" lon="12.219584514763">
        <ele>105.8</ele>
        <time>2017-05-01T10:37:30Z</time>
      </trkpt>
      <trkpt lat="59.026485354273" lon="12.219534642458">
        <ele>103.6</ele>
        <time>2017-05-01T10:37:43Z</time>
      </trkpt>
      <trkpt lat="59.026303047948" lon="12.219499019383">
        <ele>104.2</ele>
        <time>2017-05-01T10:37:55Z</time>
      </trkpt>
      <trkpt lat="59.026121495994" lon="12.219470604742">
        <ele>105.2</ele>
        <time>2017-05-01T10:38:08Z</time>
      </trkpt>
      <trkpt lat="59.025938938212" lon="12.219439591712">
        <ele>105.2</ele>
        <time>2017-05-01T10:38:21Z</time>
      </trkpt>
      <trkpt lat="59.025811198056" lon="12.219400532058">
        <ele>106.4</ele>
        <time>2017-05-01T10:38:31Z</time>
      </trkpt>
      <trkpt lat="59.025770378203" lon="12.21974737508">
        <ele>113.4</ele>
        <time>2017-05-01T10:38:44Z</time>
      </trkpt>
      <trkpt lat="59.025861573275" lon="12.220047195643">
        <ele>117.4</ele>
        <time>2017-05-01T10:38:57Z</time>
      </trkpt>
      <trkpt lat="59.025998198245" lon="12.220293707322">
        <ele>114.8</ele>
        <time>2017-05-01T10:39:13Z</time>
      </trkpt>
      <trkpt lat="59.026087968394" lon="12.220617919214">
        <ele>114.6</ele>
        <time>2017-05-01T10:39:26Z</time>
      </trkpt>
      <trkpt lat="59.026105738022" lon="12.220976245439">
        <ele>117.2</ele>
        <time>2017-05-01T10:39:40Z</time>
      </trkpt>
      <trkpt lat="59.026087800756" lon="12.221345384315">
        <ele>122.6</ele>
        <time>2017-05-01T10:39:54Z</time>
      </trkpt>
      <trkpt lat="59.026046813265" lon="12.22170371054">
        <ele>123.4</ele>
        <time>2017-05-01T10:40:08Z</time>
      </trkpt>
      <trkpt lat="59.026180923665" lon="12.221922226673">
        <ele>117.4</ele>
        <time>2017-05-01T10:40:25Z</time>
      </trkpt>
      <trkpt lat="59.026361888886" lon="12.222020043446">
        <ele>114.2</ele>
        <time>2017-05-01T10:40:40Z</time>
      </trkpt>
      <trkpt lat="59.026473368156" lon="12.222204277608">
        <ele>114.6</ele>
        <time>2017-05-01T10:40:51Z</time>
      </trkpt>
      <trkpt lat="59.026499352046" lon="12.222553467562">
        <ele>114.6</ele>
        <time>2017-05-01T10:41:04Z</time>
      </trkpt>
      <trkpt lat="59.026438750909" lon="12.222883965879">
        <ele>115.4</ele>
        <time>2017-05-01T10:41:16Z</time>
      </trkpt>
      <trkpt lat="59.026390303527" lon="12.22324262738">
        <ele>113</ele>
        <time>2017-05-01T10:41:30Z</time>
      </trkpt>
      <trkpt lat="59.026365493103" lon="12.22360472546">
        <ele>113.2</ele>
        <time>2017-05-01T10:41:44Z</time>
      </trkpt>
      <trkpt lat="59.026385609663" lon="12.22397939639">
        <ele>113.6</ele>
        <time>2017-05-01T10:41:57Z</time>
      </trkpt>
      <trkpt lat="59.026493484716" lon="12.22416715095">
        <ele>111.2</ele>
        <time>2017-05-01T10:42:13Z</time>
      </trkpt>
      <trkpt lat="59.026685514045" lon="12.224133539531">
        <ele>107.4</ele>
        <time>2017-05-01T10:42:29Z</time>
      </trkpt>
      <trkpt lat="59.026862707411" lon="12.224168492054">
        <ele>112</ele>
        <time>2017-05-01T10:42:40Z</time>
      </trkpt>
      <trkpt lat="59.027050881066" lon="12.224208641355">
        <ele>111.4</ele>
        <time>2017-05-01T10:42:56Z</time>
      </trkpt>
      <trkpt lat="59.027116176067" lon="12.224194978858">
        <ele>110.2</ele>
        <time>2017-05-01T10:43:02Z</time>
      </trkpt>
      <trkpt lat="59.027124055053" lon="12.224201181464">
        <ele>110.4</ele>
        <time>2017-05-01T10:43:06Z</time>
      </trkpt>
    </trkseg>
  </trk>
</gpx>